KGIF/GIF METAR and TAF weather

Enter ICAO airport designator
Station Type Date Time Source
KGIF METAR 2022/12/04 04:53 UTC NOAA

KGIF 040453Z AUTO 00000KT 10SM CLR 19/17 A3027 RMK AO2 SLP247 T01890167 402830161


Station Type Date Time Source
KGIF Decoded METAR 2022/12/04 04:53 UTC NOAA

WINTER HAVENS GILBERT AIRPORT , FL, United States (KGIF) 28-04N 81-45W 43M
Dec 03, 2022 - 11:53 PM EST / 2022.12.04 0453 UTC
Wind: Calm:0
Visibility: 10 mile(s):0
Sky conditions: clear
Temperature: 66.0 F (18.9 C)
Dew Point: 62.1 F (16.7 C)
Relative Humidity: 87%
Pressure (altimeter): 30.27 in. Hg (1025 hPa)
ob: KGIF 040453Z AUTO 00000KT 10SM CLR 19/17 A3027 RMK AO2 SLP247 T01890167 402830161
cycle: 5

Station Type Date Time Source
KGIF TAF UTC NOAA

Error!

Example: see airport list